createdAt,value
2019-05-20T00:02:38.033Z,99289.23
2019-05-20T00:07:40.524Z,99291.30
2019-05-20T00:12:43.042Z,99302.23
2019-05-20T00:17:45.483Z,99298.78
2019-05-20T00:22:47.958Z,99298.63
2019-05-20T00:27:50.463Z,99297.38
2019-05-20T00:32:52.955Z,99301.55
2019-05-20T00:37:55.444Z,99296.09
2019-05-20T00:42:57.920Z,99294.56
2019-05-20T00:48:00.396Z,99294.17
2019-05-20T00:53:02.876Z,99290.53
2019-05-20T00:58:05.364Z,99291.41
2019-05-20T01:03:07.871Z,99287.83
2019-05-20T01:08:10.457Z,99280.14
2019-05-20T01:13:12.948Z,99281.59
2019-05-20T01:18:15.430Z,99271.09
2019-05-20T01:23:17.904Z,99268.77
2019-05-20T01:28:20.376Z,99265.88
2019-05-20T01:33:22.866Z,99262.59
2019-05-20T01:38:25.349Z,99267.47
2019-05-20T01:43:27.833Z,99268.13
2019-05-20T01:48:30.329Z,99262.13
2019-05-20T01:53:32.817Z,99261.00
2019-05-20T01:58:35.353Z,99270.91
2019-05-20T02:03:37.768Z,99275.28
2019-05-20T02:08:40.238Z,99268.41
2019-05-20T02:13:54.708Z,99262.64
2019-05-20T02:18:57.211Z,99264.00
2019-05-20T02:23:59.687Z,99258.73
2019-05-20T02:29:02.245Z,99256.16
2019-05-20T02:34:04.678Z,99258.91
2019-05-20T02:39:07.158Z,99254.77
2019-05-20T02:44:09.642Z,99257.52
2019-05-20T02:49:12.194Z,99251.39
2019-05-20T02:54:14.638Z,99261.49
2019-05-20T02:59:17.148Z,99259.58
2019-05-20T03:04:19.611Z,99253.23
2019-05-20T03:09:22.101Z,99249.09
2019-05-20T03:14:24.678Z,99263.28
2019-05-20T03:19:27.175Z,99257.30
2019-05-20T03:24:29.656Z,99262.71
2019-05-20T03:29:32.156Z,99263.47
2019-05-20T03:34:50.561Z,99264.53
2019-05-20T03:39:37.242Z,99265.90
2019-05-20T03:44:39.726Z,99267.31
2019-05-20T03:49:42.216Z,99279.80
2019-05-20T03:54:44.728Z,99277.59
2019-05-20T03:59:47.251Z,99277.16
2019-05-20T04:05:01.253Z,99280.09
2019-05-20T04:09:52.218Z,99278.09
2019-05-20T04:14:54.705Z,99293.84
2019-05-20T04:19:57.186Z,99286.23
2019-05-20T04:24:59.684Z,99288.58
2019-05-20T04:30:02.168Z,99296.16
2019-05-20T04:35:20.576Z,99285.63
2019-05-20T04:40:07.141Z,99291.93
2019-05-20T04:45:09.637Z,99294.80
2019-05-20T04:50:12.135Z,99288.27
2019-05-20T04:55:14.632Z,99301.73
2019-05-20T05:00:17.131Z,99296.89
2019-05-20T05:05:19.619Z,99303.83
2019-05-20T05:10:22.093Z,99306.63
2019-05-20T05:15:24.587Z,99299.47
2019-05-20T05:20:27.074Z,99299.36
2019-05-20T05:25:29.611Z,99301.58
2019-05-20T05:30:32.327Z,99295.17
2019-05-20T05:35:34.821Z,99299.48
2019-05-20T05:40:37.300Z,99310.59
2019-05-20T05:45:39.840Z,99329.66
2019-05-20T05:50:42.428Z,99332.09
2019-05-20T05:55:44.927Z,99331.18
2019-05-20T06:00:47.420Z,99338.36
2019-05-20T06:05:49.907Z,99355.25
2019-05-20T06:10:52.405Z,99358.02
2019-05-20T06:15:54.902Z,99361.00
2019-05-20T06:20:57.397Z,99363.25
2019-05-20T06:26:00.057Z,99360.98
2019-05-20T06:31:02.489Z,99359.60
2019-05-20T06:36:05.000Z,99357.38
2019-05-20T06:41:07.521Z,99358.19
2019-05-20T06:46:10.071Z,99361.40
2019-05-20T06:51:12.513Z,99362.00
2019-05-20T06:56:15.012Z,99363.33
2019-05-20T07:01:17.647Z,99368.58
2019-05-20T07:06:20.158Z,99370.80
2019-05-20T07:11:22.677Z,99374.76
2019-05-20T07:16:25.171Z,99376.36
2019-05-20T07:21:27.676Z,99376.00
2019-05-20T07:26:30.190Z,99379.27
2019-05-20T07:31:32.676Z,99378.94
2019-05-20T07:36:35.168Z,99376.67
2019-05-20T07:41:41.161Z,99368.03
2019-05-20T07:46:40.161Z,99363.30
2019-05-20T07:51:42.662Z,99367.98
2019-05-20T07:56:45.196Z,99371.76
2019-05-20T08:01:47.691Z,99372.69
2019-05-20T08:06:50.203Z,99368.55
2019-05-20T08:11:52.681Z,99379.94
2019-05-20T08:16:55.190Z,99375.93
2019-05-20T08:21:57.672Z,99389.27
2019-05-20T08:27:00.199Z,99396.52
2019-05-20T08:32:02.695Z,99389.56
2019-05-20T08:37:05.173Z,99389.60
2019-05-20T08:42:07.659Z,99397.06
2019-05-20T08:47:10.158Z,99394.88
2019-05-20T08:52:12.819Z,99395.50
2019-05-20T08:57:15.222Z,99392.53
2019-05-20T09:02:17.719Z,99394.82
2019-05-20T09:07:20.223Z,99393.00
2019-05-20T09:12:22.699Z,99396.44
2019-05-20T09:17:25.206Z,99398.84
2019-05-20T09:22:27.718Z,99403.30
2019-05-20T09:27:30.197Z,99402.07
2019-05-20T09:32:32.691Z,99411.08
2019-05-20T09:37:35.175Z,99411.70
2019-05-20T09:42:40.816Z,99406.30
2019-05-20T09:47:40.154Z,99408.85
2019-05-20T09:52:42.640Z,99408.87
2019-05-20T09:57:45.129Z,99406.05
2019-05-20T10:02:47.620Z,99413.71
2019-05-20T10:07:50.126Z,99413.52
2019-05-20T10:12:52.613Z,99424.73
2019-05-20T10:17:55.092Z,99423.13
2019-05-20T10:22:57.611Z,99419.38
2019-05-20T10:28:00.073Z,99412.99
2019-05-20T10:33:02.574Z,99419.89
2019-05-20T10:38:05.077Z,99423.22
2019-05-20T10:43:07.574Z,99426.77
2019-05-20T10:48:10.064Z,99427.88
2019-05-20T10:53:12.550Z,99438.88
2019-05-20T10:58:15.110Z,99444.11
2019-05-20T11:03:17.594Z,99444.80
2019-05-20T11:08:20.127Z,99446.77
2019-05-20T11:13:22.629Z,99456.21
2019-05-20T11:18:25.122Z,99461.13
2019-05-20T11:23:27.711Z,99460.59
2019-05-20T11:28:30.092Z,99462.83
2019-05-20T11:33:32.601Z,99461.05
2019-05-20T11:38:35.096Z,99465.31
2019-05-20T11:43:37.589Z,99462.43
2019-05-20T11:48:40.134Z,99466.08
2019-05-20T11:53:42.616Z,99462.42
2019-05-20T11:58:45.118Z,99457.75
2019-05-20T12:03:47.620Z,99460.45
2019-05-20T12:08:52.467Z,99458.33
2019-05-20T12:13:52.756Z,99465.33
2019-05-20T12:18:55.251Z,99456.24
2019-05-20T12:23:57.748Z,99455.88
2019-05-20T12:29:00.244Z,99454.89
2019-05-20T12:34:02.748Z,99459.41
2019-05-20T12:39:05.250Z,99454.11
2019-05-20T12:44:12.708Z,99450.39
2019-05-20T12:49:10.428Z,99448.48
2019-05-20T12:54:12.740Z,99449.20
2019-05-20T12:59:15.278Z,99447.02
2019-05-20T13:04:17.771Z,99450.78
2019-05-20T13:09:20.269Z,99441.17
2019-05-20T13:14:22.752Z,99439.27
2019-05-20T13:19:25.293Z,99444.31
2019-05-20T13:24:27.796Z,99442.44
2019-05-20T13:29:30.286Z,99444.23
2019-05-20T13:34:32.766Z,99431.86
2019-05-20T13:39:35.317Z,99429.18
2019-05-20T13:44:37.792Z,99423.55
2019-05-20T13:49:40.309Z,99427.38
2019-05-20T13:54:42.783Z,99426.91
2019-05-20T13:59:45.275Z,99426.58
2019-05-20T14:04:47.759Z,99437.82
2019-05-20T14:09:50.258Z,99434.35
2019-05-20T14:14:52.752Z,99429.19
2019-05-20T14:19:55.256Z,99425.53
2019-05-20T14:24:57.852Z,99441.91
2019-05-20T14:30:00.275Z,99436.96
2019-05-20T14:35:02.788Z,99442.78
2019-05-20T14:40:05.267Z,99442.67
2019-05-20T14:45:07.767Z,99446.70
2019-05-20T14:50:10.284Z,99447.53
2019-05-20T14:55:12.763Z,99456.34
2019-05-20T15:00:15.292Z,99468.75
2019-05-20T15:05:17.914Z,99465.92
2019-05-20T15:10:20.372Z,99466.80
2019-05-20T15:15:22.882Z,99469.40
2019-05-20T15:20:25.395Z,99474.08
2019-05-20T15:25:27.888Z,99480.70
2019-05-20T15:30:30.384Z,99478.95
2019-05-20T15:35:32.888Z,99480.53
2019-05-20T15:40:35.408Z,99492.48
2019-05-20T15:45:37.895Z,99488.30
2019-05-20T15:50:40.396Z,99495.44
2019-05-20T15:55:42.883Z,99493.00
2019-05-20T16:00:45.372Z,99487.70
2019-05-20T16:05:47.869Z,99489.39
2019-05-20T16:10:50.374Z,99486.06
2019-05-20T16:15:52.899Z,99490.43
2019-05-20T16:20:55.396Z,99491.03
2019-05-20T16:25:57.885Z,99500.97
2019-05-20T16:31:00.382Z,99503.94
2019-05-20T16:36:02.957Z,99512.80
2019-05-20T16:41:05.459Z,99496.81
2019-05-20T16:46:08.042Z,99500.41
2019-05-20T16:51:10.540Z,99499.59
2019-05-20T16:56:13.014Z,99502.70
2019-05-20T17:01:15.535Z,99503.14
2019-05-20T17:06:18.010Z,99499.19
2019-05-20T17:11:20.545Z,99507.06
2019-05-20T17:16:23.027Z,99502.42
2019-05-20T17:21:25.533Z,99500.70
2019-05-20T17:26:28.020Z,99506.84
2019-05-20T17:31:31.008Z,99517.15
2019-05-20T17:36:33.050Z,99521.33
2019-05-20T17:41:35.614Z,99521.77
2019-05-20T17:46:38.129Z,99529.58
2019-05-20T17:51:43.315Z,99536.99
2019-05-20T17:56:43.384Z,99545.13
2019-05-20T18:01:45.926Z,99543.77
2019-05-20T18:06:48.453Z,99544.50
2019-05-20T18:11:50.961Z,99547.40
2019-05-20T18:16:53.474Z,99548.34
2019-05-20T18:21:55.977Z,99553.86
2019-05-20T18:26:58.481Z,99552.36
2019-05-20T18:32:00.977Z,99549.63
2019-05-20T18:37:03.490Z,99550.97
2019-05-20T18:42:05.989Z,99555.28
2019-05-20T18:47:08.479Z,99552.23
2019-05-20T18:52:10.991Z,99555.91
2019-05-20T18:57:13.515Z,99558.33
2019-05-20T19:02:15.990Z,99559.64
2019-05-20T19:07:18.488Z,99568.42
2019-05-20T19:12:20.977Z,99568.98
2019-05-20T19:17:23.622Z,99569.60
2019-05-20T19:22:26.043Z,99576.41
2019-05-20T19:27:28.542Z,99584.20
2019-05-20T19:32:31.044Z,99589.03
2019-05-20T19:37:33.553Z,99596.54
2019-05-20T19:42:36.042Z,99600.89
2019-05-20T19:47:38.530Z,99615.72
2019-05-20T19:52:41.040Z,99621.02
2019-05-20T19:57:43.531Z,99623.29
2019-05-20T20:02:46.011Z,99623.47
2019-05-20T20:07:48.591Z,99630.20
2019-05-20T20:12:51.157Z,99626.05
2019-05-20T20:17:53.616Z,99633.50
2019-05-20T20:22:56.107Z,99643.31
2019-05-20T20:27:58.609Z,99642.59
2019-05-20T20:33:01.100Z,99645.69
2019-05-20T20:38:03.612Z,99643.87
2019-05-20T20:43:06.115Z,99653.79
2019-05-20T20:48:08.603Z,99641.34
2019-05-20T20:53:11.105Z,99647.30
2019-05-20T20:58:14.503Z,99652.44
2019-05-20T21:03:17.039Z,99655.89
2019-05-20T21:08:19.542Z,99651.61
2019-05-20T21:13:22.037Z,99659.45
2019-05-20T21:18:24.569Z,99665.08
2019-05-20T21:23:27.056Z,99667.55
2019-05-20T21:28:29.540Z,99668.59
2019-05-20T21:33:32.040Z,99671.39
2019-05-20T21:38:34.531Z,99671.23
2019-05-20T21:43:37.041Z,99668.36
2019-05-20T21:48:39.535Z,99677.72
2019-05-20T21:53:42.049Z,99675.11
2019-05-20T21:58:44.524Z,99678.57
2019-05-20T22:03:47.012Z,99682.58
2019-05-20T22:08:49.517Z,99679.65
2019-05-20T22:13:52.084Z,99675.84
2019-05-20T22:18:54.568Z,99683.27
2019-05-20T22:23:57.064Z,99677.29
2019-05-20T22:28:59.531Z,99669.55
2019-05-20T22:34:02.032Z,99666.13
2019-05-20T22:39:04.527Z,99671.00
2019-05-20T22:44:07.019Z,99666.39
2019-05-20T22:49:09.523Z,99671.39
2019-05-20T22:54:12.077Z,99677.11
2019-05-20T22:59:14.531Z,99677.51
2019-05-20T23:04:17.024Z,99679.84
2019-05-20T23:09:19.512Z,99677.38
2019-05-20T23:14:21.988Z,99675.48
2019-05-20T23:19:24.503Z,99678.20
2019-05-20T23:24:26.972Z,99681.72
2019-05-20T23:29:29.452Z,99690.38
2019-05-20T23:34:31.944Z,99678.25
2019-05-20T23:39:34.440Z,99679.17
2019-05-20T23:44:36.921Z,99677.67
2019-05-20T23:49:39.409Z,99673.32
2019-05-20T23:54:41.910Z,99676.71
2019-05-20T23:59:44.390Z,99670.86
